createdAt,value
2018-04-07T00:01:20.800Z,17.80
2018-04-07T00:03:48.219Z,17.90
2018-04-07T00:06:15.638Z,18.50
2018-04-07T00:08:43.088Z,17.90
2018-04-07T00:11:11.375Z,18.50
2018-04-07T00:13:38.792Z,18.10
2018-04-07T00:16:06.218Z,17.90
2018-04-07T00:18:33.690Z,18.10
2018-04-07T00:21:01.884Z,18.20
2018-04-07T00:23:29.294Z,18.70
2018-04-07T00:25:56.723Z,18.70
2018-04-07T00:28:24.143Z,18.90
2018-04-07T00:30:51.571Z,18.50
2018-04-07T00:33:18.994Z,18.00
2018-04-07T00:35:46.412Z,18.80
2018-04-07T00:38:13.833Z,18.80
2018-04-07T00:40:41.271Z,18.70
2018-04-07T00:43:08.879Z,19.00
2018-04-07T00:45:36.300Z,19.20
2018-04-07T00:48:03.727Z,19.60
2018-04-07T00:50:31.151Z,20.10
2018-04-07T00:52:58.576Z,19.80
2018-04-07T00:55:25.991Z,19.80
2018-04-07T00:57:53.418Z,19.50
2018-04-07T01:00:20.838Z,19.40
2018-04-07T01:02:48.262Z,19.50
2018-04-07T01:05:15.672Z,19.70
2018-04-07T01:07:43.864Z,20.00
2018-04-07T01:10:11.271Z,20.00
2018-04-07T01:12:38.704Z,20.80
2018-04-07T01:15:06.891Z,20.40
2018-04-07T01:17:34.326Z,20.40
2018-04-07T01:20:01.752Z,20.20
2018-04-07T01:22:29.181Z,20.50
2018-04-07T01:24:56.607Z,20.50
2018-04-07T01:27:24.050Z,20.40
2018-04-07T01:29:51.467Z,20.90
2018-04-07T01:32:18.888Z,20.90
2018-04-07T01:34:46.319Z,21.40
2018-04-07T01:37:13.969Z,21.80
2018-04-07T01:39:41.405Z,21.80
2018-04-07T01:42:08.836Z,21.80
2018-04-07T01:44:36.258Z,21.90
2018-04-07T01:47:03.693Z,21.60
2018-04-07T01:49:31.191Z,22.00
2018-04-07T01:51:58.611Z,21.90
2018-04-07T01:54:26.043Z,22.00
2018-04-07T01:56:53.471Z,22.40
2018-04-07T01:59:21.672Z,22.00
2018-04-07T02:01:49.092Z,22.00
2018-04-07T02:04:16.524Z,22.20
2018-04-07T02:06:43.971Z,22.00
2018-04-07T02:09:11.411Z,22.30
2018-04-07T02:11:38.843Z,22.50
2018-04-07T02:14:06.275Z,22.40
2018-04-07T02:16:33.692Z,21.70
2018-04-07T02:19:01.110Z,22.10
2018-04-07T02:21:28.539Z,22.00
2018-04-07T02:23:55.971Z,21.60
2018-04-07T02:26:23.400Z,21.90
2018-04-07T02:28:50.830Z,21.60
2018-04-07T02:31:18.259Z,21.90
2018-04-07T02:33:45.683Z,22.00
2018-04-07T02:36:13.121Z,22.50
2018-04-07T02:38:40.535Z,23.00
2018-04-07T02:41:09.640Z,22.70
2018-04-07T02:43:37.060Z,22.70
2018-04-07T02:46:04.512Z,23.30
2018-04-07T02:48:31.915Z,23.40
2018-04-07T02:50:59.395Z,23.10
2018-04-07T02:53:26.835Z,23.50
2018-04-07T02:55:54.257Z,22.90
2018-04-07T02:58:22.454Z,22.70
2018-04-07T03:00:49.876Z,22.70
2018-04-07T03:03:17.318Z,22.70
2018-04-07T03:05:44.744Z,22.70
2018-04-07T03:08:12.175Z,22.70
2018-04-07T03:10:39.669Z,22.70
2018-04-07T03:13:07.094Z,22.70
2018-04-07T03:15:34.515Z,22.70
2018-04-07T03:18:02.748Z,23.00
2018-04-07T03:20:30.179Z,22.70
2018-04-07T03:22:57.606Z,22.60
2018-04-07T03:25:25.027Z,22.70
2018-04-07T03:27:52.476Z,22.80
2018-04-07T03:30:19.896Z,23.00
2018-04-07T03:32:47.315Z,23.20
2018-04-07T03:35:14.780Z,23.40
2018-04-07T03:37:42.395Z,23.30
2018-04-07T03:40:09.830Z,23.70
2018-04-07T03:42:37.243Z,22.90
2018-04-07T03:45:05.441Z,22.90
2018-04-07T03:47:32.859Z,22.90
2018-04-07T03:50:00.288Z,22.70
2018-04-07T03:52:27.717Z,23.10
2018-04-07T03:54:55.164Z,24.00
2018-04-07T03:57:22.587Z,24.10
2018-04-07T03:59:50.019Z,24.40
2018-04-07T04:02:17.439Z,24.20
2018-04-07T04:04:44.879Z,24.70
2018-04-07T04:07:13.271Z,25.70
2018-04-07T04:09:40.699Z,25.70
2018-04-07T04:12:08.111Z,25.40
2018-04-07T04:14:35.677Z,25.40
2018-04-07T04:17:03.076Z,24.90
2018-04-07T04:19:31.283Z,24.60
2018-04-07T04:21:58.766Z,24.50
2018-04-07T04:24:26.213Z,24.50
2018-04-07T04:26:53.631Z,24.20
2018-04-07T04:29:21.047Z,24.30
2018-04-07T04:31:48.483Z,24.30
2018-04-07T04:34:15.899Z,24.00
2018-04-07T04:36:43.336Z,24.40
2018-04-07T04:39:10.819Z,24.60
2018-04-07T04:41:38.252Z,24.80
2018-04-07T04:44:06.444Z,24.40
2018-04-07T04:46:33.871Z,24.30
2018-04-07T04:49:01.296Z,24.20
2018-04-07T04:51:29.037Z,24.50
2018-04-07T04:53:56.611Z,25.20
2018-04-07T04:56:24.042Z,25.60
2018-04-07T04:58:52.226Z,25.60
2018-04-07T05:01:19.646Z,25.60
2018-04-07T05:03:47.075Z,25.60
2018-04-07T05:06:14.512Z,25.60
2018-04-07T05:08:41.948Z,25.60
2018-04-07T05:11:09.364Z,25.30
2018-04-07T05:13:36.783Z,26.10
2018-04-07T05:16:04.219Z,25.50
2018-04-07T05:18:31.639Z,25.50
2018-04-07T05:20:59.815Z,26.30
2018-04-07T05:23:27.244Z,25.60
2018-04-07T05:25:55.427Z,25.60
2018-04-07T05:28:23.026Z,25.60
2018-04-07T05:30:50.444Z,25.60
2018-04-07T05:33:17.875Z,26.10
2018-04-07T05:35:45.295Z,26.20
2018-04-07T05:38:12.924Z,25.90
2018-04-07T05:40:40.344Z,26.00
2018-04-07T05:43:07.808Z,25.70
2018-04-07T05:45:35.219Z,25.80
2018-04-07T05:48:02.644Z,25.50
2018-04-07T05:50:30.890Z,25.90
2018-04-07T05:52:58.311Z,25.80
2018-04-07T05:55:25.745Z,25.90
2018-04-07T05:57:53.184Z,25.90
2018-04-07T06:00:20.686Z,25.20
2018-04-07T06:02:48.123Z,24.50
2018-04-07T06:05:15.564Z,24.10
2018-04-07T06:07:42.989Z,23.50
2018-04-07T06:10:10.465Z,23.40
2018-04-07T06:12:37.886Z,23.60
2018-04-07T06:15:05.315Z,24.20
2018-04-07T06:17:32.740Z,24.30
2018-04-07T06:20:00.939Z,23.90
2018-04-07T06:22:28.366Z,23.80
2018-04-07T06:24:55.799Z,23.50
2018-04-07T06:27:23.215Z,24.30
2018-04-07T06:29:50.644Z,24.30
2018-04-07T06:32:19.028Z,24.30
2018-04-07T06:34:47.219Z,24.90
2018-04-07T06:37:14.640Z,24.80
2018-04-07T06:39:42.075Z,26.80
2018-04-07T06:42:09.512Z,25.20
2018-04-07T06:44:37.015Z,24.10
2018-04-07T06:47:04.435Z,22.60
2018-04-07T06:49:31.854Z,23.40
2018-04-07T06:51:59.287Z,22.10
2018-04-07T06:54:27.485Z,24.00
2018-04-07T06:56:54.935Z,24.00
2018-04-07T06:59:22.352Z,22.70
2018-04-07T07:01:49.775Z,22.30
2018-04-07T07:04:17.195Z,22.50
2018-04-07T07:06:44.796Z,22.70
2018-04-07T07:09:12.233Z,21.80
2018-04-07T07:11:39.639Z,21.90
2018-04-07T07:14:07.059Z,22.00
2018-04-07T07:16:34.503Z,23.10
2018-04-07T07:19:01.896Z,22.30
2018-04-07T07:21:29.335Z,22.00
2018-04-07T07:23:56.755Z,22.40
2018-04-07T07:26:24.307Z,24.10
2018-04-07T07:28:51.740Z,23.50
2018-04-07T07:31:19.938Z,23.10
2018-04-07T07:33:47.359Z,23.10
2018-04-07T07:36:15.570Z,25.60
2018-04-07T07:38:43.000Z,25.50
2018-04-07T07:41:10.463Z,26.10
2018-04-07T07:43:39.874Z,23.10
2018-04-07T07:46:07.516Z,22.00
2018-04-07T07:48:35.191Z,20.40
2018-04-07T07:51:02.624Z,19.80
2018-04-07T07:53:30.111Z,20.20
2018-04-07T07:55:57.532Z,19.30
2018-04-07T07:58:24.980Z,19.20
2018-04-07T08:00:52.435Z,19.00
2018-04-07T08:03:19.893Z,19.00
2018-04-07T08:05:47.325Z,19.10
2018-04-07T08:08:14.775Z,19.80
2018-04-07T08:10:42.191Z,19.20
2018-04-07T08:13:10.411Z,18.30
2018-04-07T08:15:37.833Z,18.20
2018-04-07T08:18:05.295Z,18.10
2018-04-07T08:20:32.727Z,17.90
2018-04-07T08:23:00.167Z,17.40
2018-04-07T08:25:27.605Z,16.30
2018-04-07T08:27:55.062Z,17.30
2018-04-07T08:30:22.496Z,18.20
2018-04-07T08:32:49.930Z,16.40
2018-04-07T08:35:17.524Z,17.80
2018-04-07T08:37:44.963Z,18.40
2018-04-07T08:40:12.416Z,15.60
2018-04-07T08:42:40.080Z,14.60
2018-04-07T08:45:08.476Z,14.80
2018-04-07T08:47:35.906Z,16.60
2018-04-07T08:50:03.355Z,15.50
2018-04-07T08:52:30.782Z,14.70
2018-04-07T08:54:59.050Z,13.90
2018-04-07T08:57:26.501Z,13.80
2018-04-07T08:59:53.992Z,14.40
2018-04-07T09:02:21.683Z,13.30
2018-04-07T09:04:49.140Z,13.30
2018-04-07T09:07:16.704Z,16.10
2018-04-07T09:09:44.130Z,15.80
2018-04-07T09:12:11.814Z,13.00
2018-04-07T09:14:39.238Z,13.00
2018-04-07T09:17:07.118Z,13.50
2018-04-07T09:19:34.606Z,12.40
2018-04-07T09:22:02.067Z,16.20
2018-04-07T09:24:29.500Z,13.80
2018-04-07T09:26:56.935Z,15.00
2018-04-07T09:29:24.380Z,14.80
2018-04-07T09:31:51.803Z,15.80
2018-04-07T09:34:20.762Z,13.40
2018-04-07T09:36:48.211Z,13.30
2018-04-07T09:39:15.639Z,13.20
2018-04-07T09:41:43.075Z,13.20
2018-04-07T09:44:10.504Z,13.10
2018-04-07T09:46:37.936Z,12.90
2018-04-07T09:49:05.495Z,12.50
2018-04-07T09:51:32.932Z,11.90
2018-04-07T09:54:00.350Z,11.70
2018-04-07T09:56:27.785Z,11.70
2018-04-07T09:58:55.219Z,10.90
2018-04-07T10:01:28.235Z,9.40
2018-04-07T10:03:55.672Z,10.50
2018-04-07T10:06:23.215Z,9.60
2018-04-07T10:08:50.647Z,8.60
2018-04-07T10:11:18.067Z,7.80
2018-04-07T10:13:45.510Z,7.80
2018-04-07T10:16:12.941Z,8.80
2018-04-07T10:18:40.449Z,7.90
2018-04-07T10:21:07.952Z,9.90
2018-04-07T10:23:35.383Z,8.10
2018-04-07T10:26:02.807Z,8.20
2018-04-07T10:28:30.228Z,7.60
2018-04-07T10:30:57.659Z,7.20
2018-04-07T10:33:25.144Z,8.80
2018-04-07T10:35:52.588Z,7.00
2018-04-07T10:38:20.007Z,6.80
2018-04-07T10:40:48.400Z,6.90
2018-04-07T10:43:15.874Z,6.90
2018-04-07T10:45:43.440Z,6.90
2018-04-07T10:48:10.854Z,5.60
2018-04-07T10:50:38.284Z,4.90
2018-04-07T10:53:05.727Z,5.30
2018-04-07T10:55:33.184Z,6.70
2018-04-07T10:58:00.722Z,6.80
2018-04-07T11:00:28.179Z,4.20
2018-04-07T11:02:55.612Z,3.80
2018-04-07T11:05:23.035Z,4.30
2018-04-07T11:07:50.746Z,3.10
2018-04-07T11:10:18.313Z,2.60
2018-04-07T11:12:45.849Z,3.50
2018-04-07T11:15:13.391Z,3.10
2018-04-07T11:17:40.890Z,2.70
2018-04-07T11:20:08.371Z,4.90
2018-04-07T11:22:36.565Z,4.00
2018-04-07T11:25:04.014Z,4.00
2018-04-07T11:27:31.500Z,1.10
2018-04-07T11:29:59.123Z,1.10
2018-04-07T11:32:26.550Z,2.50
2018-04-07T11:34:54.016Z,1.00
2018-04-07T11:37:21.460Z,1.60
2018-04-07T11:39:48.887Z,1.70
2018-04-07T11:42:16.303Z,1.00
2018-04-07T11:44:43.924Z,1.10
2018-04-07T11:47:11.386Z,1.00
2018-04-07T11:49:39.015Z,1.00
2018-04-07T11:52:06.463Z,1.00
2018-04-07T11:54:34.666Z,1.00
2018-04-07T11:57:02.083Z,1.00
2018-04-07T11:59:29.500Z,1.00
2018-04-07T12:01:56.965Z,1.00
2018-04-07T12:04:24.445Z,1.00
2018-04-07T12:06:51.884Z,1.00
2018-04-07T12:09:19.310Z,1.00
2018-04-07T12:11:46.750Z,1.00
2018-04-07T12:14:14.254Z,1.00
2018-04-07T12:16:41.735Z,1.00
2018-04-07T12:19:09.156Z,1.00
2018-04-07T12:21:36.733Z,1.00
2018-04-07T12:24:04.200Z,1.00
2018-04-07T12:26:31.659Z,1.00
2018-04-07T12:28:59.413Z,1.00
2018-04-07T12:31:26.887Z,1.00
2018-04-07T12:33:54.391Z,1.00
2018-04-07T12:36:21.795Z,1.00
2018-04-07T12:38:49.268Z,1.00
2018-04-07T12:41:16.759Z,1.00
2018-04-07T12:43:44.263Z,1.00
2018-04-07T12:46:12.522Z,1.00
2018-04-07T12:48:40.126Z,1.00
2018-04-07T12:51:07.565Z,1.00
2018-04-07T12:53:35.792Z,1.00
2018-04-07T12:56:03.253Z,1.00
2018-04-07T12:58:30.735Z,1.00
2018-04-07T13:00:58.319Z,1.00
2018-04-07T13:03:25.927Z,1.00
2018-04-07T13:05:53.385Z,1.00
2018-04-07T13:08:20.840Z,1.00
2018-04-07T13:10:48.354Z,1.00
2018-04-07T13:13:15.850Z,1.00
2018-04-07T13:15:43.422Z,1.00
2018-04-07T13:18:10.861Z,1.00
2018-04-07T13:20:38.315Z,1.00
2018-04-07T13:23:05.752Z,1.00
2018-04-07T13:25:33.184Z,1.00
2018-04-07T13:28:01.386Z,1.00
2018-04-07T13:30:28.842Z,1.00
2018-04-07T13:32:56.281Z,1.00
2018-04-07T13:35:23.699Z,1.00
2018-04-07T13:37:51.143Z,1.00
2018-04-07T13:40:18.563Z,1.00
2018-04-07T13:42:45.996Z,1.00
2018-04-07T13:45:13.424Z,1.00
2018-04-07T13:47:41.607Z,1.00
2018-04-07T13:50:09.055Z,1.00
2018-04-07T13:52:36.454Z,1.00
2018-04-07T13:55:03.896Z,1.00
2018-04-07T13:57:31.383Z,1.00
2018-04-07T13:59:58.922Z,1.00
2018-04-07T14:02:26.339Z,1.00
2018-04-07T14:04:53.763Z,1.00
2018-04-07T14:07:21.187Z,1.00
2018-04-07T14:09:48.611Z,1.00
2018-04-07T14:12:16.798Z,1.00
2018-04-07T14:14:44.247Z,1.00
2018-04-07T14:17:11.664Z,1.00
2018-04-07T14:19:39.085Z,1.00
2018-04-07T14:22:06.586Z,1.00
2018-04-07T14:24:34.785Z,1.00
2018-04-07T14:27:02.206Z,1.00
2018-04-07T14:29:31.196Z,1.00
2018-04-07T14:31:58.597Z,1.00
2018-04-07T14:34:26.019Z,1.00
2018-04-07T14:36:53.843Z,1.00
2018-04-07T14:39:21.272Z,1.00
2018-04-07T14:41:48.718Z,1.00
2018-04-07T14:44:16.141Z,1.00
2018-04-07T14:46:43.621Z,1.00
2018-04-07T14:49:11.110Z,1.00
2018-04-07T14:51:38.498Z,1.00
2018-04-07T14:54:05.924Z,1.00
2018-04-07T14:56:33.343Z,1.00
2018-04-07T14:59:01.553Z,1.00
2018-04-07T15:01:28.972Z,1.00
2018-04-07T15:03:56.408Z,1.00
2018-04-07T15:06:23.844Z,1.00
2018-04-07T15:08:51.283Z,1.00
2018-04-07T15:11:18.835Z,1.00
2018-04-07T15:13:46.260Z,1.00
2018-04-07T15:16:13.670Z,1.00
2018-04-07T15:18:41.093Z,1.00
2018-04-07T15:21:08.500Z,1.00
2018-04-07T15:23:36.115Z,1.00
2018-04-07T15:26:03.550Z,1.00
2018-04-07T15:28:30.986Z,1.00
2018-04-07T15:30:58.406Z,1.00
2018-04-07T15:33:25.826Z,1.00
2018-04-07T15:35:53.255Z,1.00
2018-04-07T15:38:21.440Z,1.00
2018-04-07T15:40:48.875Z,1.00
2018-04-07T15:43:16.532Z,1.00
2018-04-07T15:45:43.943Z,1.00
2018-04-07T15:48:11.363Z,1.00
2018-04-07T15:50:39.067Z,1.00
2018-04-07T15:53:06.482Z,1.00
2018-04-07T15:55:33.898Z,1.00
2018-04-07T15:58:01.417Z,1.00
2018-04-07T16:00:28.851Z,1.00
2018-04-07T16:02:56.279Z,1.00
2018-04-07T16:05:24.473Z,1.00
2018-04-07T16:07:51.896Z,1.00
2018-04-07T16:10:19.357Z,1.00
2018-04-07T16:12:46.767Z,1.00
2018-04-07T16:15:14.859Z,1.00
2018-04-07T16:17:42.291Z,1.00
2018-04-07T16:20:09.702Z,1.00
2018-04-07T16:22:37.118Z,1.00
2018-04-07T16:25:04.539Z,1.00
2018-04-07T16:27:32.719Z,1.00
2018-04-07T16:30:00.136Z,1.00
2018-04-07T16:32:27.560Z,1.00
2018-04-07T16:34:54.970Z,1.00
2018-04-07T16:37:23.159Z,1.00
2018-04-07T16:39:50.580Z,1.00
2018-04-07T16:42:18.004Z,1.00
2018-04-07T16:44:45.431Z,1.00
2018-04-07T16:47:12.843Z,1.00
2018-04-07T16:49:40.274Z,1.00
2018-04-07T16:52:07.695Z,1.00
2018-04-07T16:54:35.122Z,1.00
2018-04-07T16:57:02.539Z,1.00
2018-04-07T16:59:29.973Z,1.00
2018-04-07T17:01:57.383Z,1.00
2018-04-07T17:04:24.811Z,1.00
2018-04-07T17:06:52.228Z,1.00
2018-04-07T17:09:19.655Z,1.00
2018-04-07T17:11:47.079Z,1.00
2018-04-07T17:14:14.505Z,1.00
2018-04-07T17:16:41.924Z,1.00
2018-04-07T17:19:09.377Z,1.00
2018-04-07T17:21:36.795Z,1.00
2018-04-07T17:24:04.219Z,1.00
2018-04-07T17:26:31.638Z,1.00
2018-04-07T17:28:59.061Z,1.00
2018-04-07T17:31:26.510Z,1.00
2018-04-07T17:33:53.914Z,1.00
2018-04-07T17:36:22.104Z,1.00
2018-04-07T17:38:49.510Z,1.00
2018-04-07T17:41:16.941Z,1.00
2018-04-07T17:43:44.403Z,1.00
2018-04-07T17:46:11.822Z,1.00
2018-04-07T17:48:40.000Z,1.00
2018-04-07T17:51:07.491Z,1.00
2018-04-07T17:53:34.903Z,1.00
2018-04-07T17:56:03.103Z,1.00
2018-04-07T17:58:30.523Z,1.00
2018-04-07T18:00:57.941Z,1.00
2018-04-07T18:03:25.375Z,1.00
2018-04-07T18:05:52.787Z,1.00
2018-04-07T18:08:20.208Z,1.00
2018-04-07T18:10:47.623Z,1.00
2018-04-07T18:13:15.044Z,1.00
2018-04-07T18:15:42.456Z,1.00
2018-04-07T18:18:09.876Z,1.00
2018-04-07T18:20:37.296Z,1.00
2018-04-07T18:23:04.721Z,1.00
2018-04-07T18:25:32.143Z,1.00
2018-04-07T18:27:59.573Z,1.00
2018-04-07T18:30:26.984Z,1.00
2018-04-07T18:32:54.555Z,1.00
2018-04-07T18:35:21.966Z,1.00
2018-04-07T18:37:49.390Z,1.00
2018-04-07T18:40:16.817Z,1.00
2018-04-07T18:42:44.246Z,1.00
2018-04-07T18:45:12.427Z,1.00
2018-04-07T18:47:39.902Z,1.00
2018-04-07T18:50:07.319Z,1.00
2018-04-07T18:52:35.556Z,1.00
2018-04-07T18:55:02.979Z,1.00
2018-04-07T18:57:30.528Z,1.00
2018-04-07T18:59:57.975Z,1.00
2018-04-07T19:02:25.387Z,1.00
2018-04-07T19:04:52.815Z,1.00
2018-04-07T19:07:20.251Z,1.00
2018-04-07T19:09:47.713Z,1.00
2018-04-07T19:12:15.387Z,1.30
2018-04-07T19:14:42.824Z,1.70
2018-04-07T19:17:10.243Z,1.70
2018-04-07T19:19:37.672Z,1.50
2018-04-07T19:22:05.220Z,1.80
2018-04-07T19:24:32.647Z,2.20
2018-04-07T19:27:00.068Z,2.40
2018-04-07T19:29:27.508Z,2.80
2018-04-07T19:31:54.924Z,2.90
2018-04-07T19:34:22.351Z,3.10
2018-04-07T19:36:50.571Z,3.50
2018-04-07T19:39:18.016Z,3.50
2018-04-07T19:41:45.427Z,3.70
2018-04-07T19:44:12.855Z,4.50
2018-04-07T19:46:40.271Z,4.80
2018-04-07T19:49:07.687Z,5.20
2018-04-07T19:51:35.215Z,5.00
2018-04-07T19:54:02.651Z,5.30
2018-04-07T19:56:30.091Z,5.40
2018-04-07T19:58:57.602Z,6.40
2018-04-07T20:01:25.113Z,6.40
2018-04-07T20:03:52.527Z,6.70
2018-04-07T20:06:19.950Z,7.30
2018-04-07T20:08:47.380Z,7.70
2018-04-07T20:11:14.956Z,8.30
2018-04-07T20:13:42.414Z,7.90
2018-04-07T20:16:09.843Z,7.50
2018-04-07T20:18:37.265Z,7.50
2018-04-07T20:21:04.779Z,7.40
2018-04-07T20:23:32.194Z,7.50
2018-04-07T20:25:59.663Z,7.50
2018-04-07T20:28:27.055Z,7.50
2018-04-07T20:30:54.599Z,7.30
2018-04-07T20:33:22.027Z,7.40
2018-04-07T20:35:49.441Z,7.20
2018-04-07T20:38:16.866Z,7.40
2018-04-07T20:40:56.970Z,7.70
2018-04-07T20:43:24.398Z,7.70
2018-04-07T20:45:51.816Z,8.00
2018-04-07T20:48:19.246Z,8.30
2018-04-07T20:50:47.431Z,9.60
2018-04-07T20:53:14.855Z,9.50
2018-04-07T20:55:42.280Z,9.40
2018-04-07T20:58:09.832Z,9.10
2018-04-07T21:00:37.256Z,9.80
2018-04-07T21:03:04.687Z,9.10
2018-04-07T21:05:32.111Z,10.60
2018-04-07T21:07:59.539Z,10.50
2018-04-07T21:10:26.975Z,11.10
2018-04-07T21:12:55.159Z,11.80
2018-04-07T21:15:22.596Z,11.80
2018-04-07T21:17:50.156Z,12.10
2018-04-07T21:20:17.862Z,12.60
2018-04-07T21:22:45.283Z,12.40
2018-04-07T21:25:12.707Z,12.70
2018-04-07T21:27:40.135Z,12.50
2018-04-07T21:30:07.590Z,13.30
2018-04-07T21:32:35.011Z,13.90
2018-04-07T21:35:02.448Z,14.00
2018-04-07T21:37:29.858Z,14.10
2018-04-07T21:39:57.295Z,13.80
2018-04-07T21:42:24.707Z,12.60
2018-04-07T21:44:52.135Z,13.80
2018-04-07T21:47:19.555Z,14.10
2018-04-07T21:49:46.990Z,13.50
2018-04-07T21:52:15.180Z,13.80
2018-04-07T21:54:42.608Z,13.80
2018-04-07T21:57:10.218Z,14.20
2018-04-07T21:59:37.656Z,13.80
2018-04-07T22:02:05.079Z,14.90
2018-04-07T22:04:33.263Z,14.20
2018-04-07T22:07:00.699Z,14.20
2018-04-07T22:09:28.119Z,14.40
2018-04-07T22:11:55.546Z,12.70
2018-04-07T22:14:22.979Z,12.50
2018-04-07T22:16:51.171Z,14.00
2018-04-07T22:19:18.599Z,13.90
2018-04-07T22:21:46.032Z,14.60
2018-04-07T22:24:13.473Z,14.40
2018-04-07T22:26:41.019Z,13.00
2018-04-07T22:29:08.438Z,12.30
2018-04-07T22:31:35.866Z,12.00
2018-04-07T22:34:03.287Z,12.50
2018-04-07T22:36:30.724Z,12.80
2018-04-07T22:38:58.148Z,14.40
2018-04-07T22:41:25.761Z,15.10
2018-04-07T22:43:54.019Z,16.00
2018-04-07T22:46:21.453Z,16.50
2018-04-07T22:48:49.640Z,17.00
2018-04-07T22:51:17.137Z,17.00
2018-04-07T22:53:44.553Z,17.30
2018-04-07T22:56:11.975Z,17.90
2018-04-07T22:58:39.407Z,17.70
2018-04-07T23:01:06.843Z,18.60
2018-04-07T23:03:34.283Z,17.90
2018-04-07T23:06:01.703Z,17.80
2018-04-07T23:08:29.898Z,19.40
2018-04-07T23:10:57.374Z,19.40
2018-04-07T23:13:24.807Z,19.20
2018-04-07T23:15:52.295Z,19.50
2018-04-07T23:18:19.726Z,19.40
2018-04-07T23:20:47.147Z,19.70
2018-04-07T23:23:14.579Z,19.40
2018-04-07T23:25:42.001Z,19.60
2018-04-07T23:28:09.454Z,19.80
2018-04-07T23:30:36.868Z,19.30
2018-04-07T23:33:04.292Z,19.70
2018-04-07T23:35:31.720Z,19.40
2018-04-07T23:37:59.139Z,20.30
2018-04-07T23:40:28.259Z,20.90
2018-04-07T23:42:55.674Z,20.80
2018-04-07T23:45:23.111Z,21.20
2018-04-07T23:47:50.543Z,21.70
2018-04-07T23:50:18.127Z,21.00
2018-04-07T23:52:45.575Z,20.50
2018-04-07T23:55:13.011Z,20.50
2018-04-07T23:57:40.426Z,20.20
